Briefing drone pour Crolles

Rechercher une autre localisation

Conditions de vol :


Nous sommes le : Mercredi 30 novembre 2022
Il est 21:20 UTC (22:20 LT)

Lever de soleil : 06:27 UTC (07:27 LT)
Coucher de soleil : 16:22 UTC (17:22 LT)

Météo

L'essentiel des conditions de vol

VIGILANCE MÉTÉO FRANCE - Isère (38)
Pas de vigilances particulieres
METAR de LFLS
LFLS 302100Z AUTO VRB02KT 9999 FEW013 OVC050 06/05 Q1018

Date d'émission: 30/11/2022
Heure d'émission: 21:00 UTC
Vent: Variable 2 KT (4 km/h)
Visibilité horizontale: > 10 km
Plafond :
- Peu de nuages à 1300ft (396m)
- Couvert à 5000ft (1524m)
Température: 6 °C
Point de rosée: 5 °C
Humidité: 93%
Pression (QNH): 1018 hPa
TAF de LFLS
LFLS 302002Z 3020/0115 CNL

Conditions prévues :

Heure d'émission : Bulletin éffectué le 30 à 20:00 UTC
Prévision : Valide du 30 a 20:00 UTC au 01 a 15:00 UTC
Nuages : à 0ft (0 m)
WEBCAM POUR CROLLES

Réglementation

Voler en sécurité

CARTES AERONAUTIQUE 1/500.000
CARTE AZBA (Reseau basse altitude)
CARTES VAC (LFLS)
SUP AIP




Chargement des AIP...
NOTAM (CROLLES + Terrain à proximité / FIR )




Chargement des NOTAMS...
CONTACT PREFECTURE 38


Avertissement : Les données mises à disposition sont indicatives. Oxygène Drone ne pourra être tenu responsable de dégâts causés aux biens et aux personnes.